Time;durP1;ratioP1;P1;durP2;ratioP2;P2;SDS_P1;SDS_P2;PMS_P1;PMS_P2;Temp;Humidity;BMP_temperature;BMP_pressure;BME280_temperature;BME280_humidity;BME280_pressure;Samples;Min_cycle;Max_cycle;Signal;HPM_P1;HPM_P2
2023/06/21 00:01:13;;;;;;;6.90;3.97;;;;;;;19.66;100.00;96820.97;4869724;29;20590;-66
2023/06/21 00:03:42;;;;;;;6.77;4.50;;;;;;;19.71;100.00;96830.16;4904732;28;20715;-65
2023/06/21 00:06:10;;;;;;;4.70;3.97;;;;;;;19.74;100.00;96829.63;4923522;29;20243;-66
2023/06/21 00:08:38;;;;;;;8.07;3.80;;;;;;;19.74;100.00;96819.72;4905638;28;20318;-66
2023/06/21 00:11:06;;;;;;;6.60;3.60;;;;;;;19.79;100.00;96825.13;4928091;29;20274;-65
2023/06/21 00:13:33;;;;;;;6.70;3.80;;;;;;;19.88;100.00;96820.09;4928705;29;20199;-66
2023/06/21 00:16:01;;;;;;;7.17;4.10;;;;;;;19.91;100.00;96818.84;4929943;29;20864;-66
2023/06/21 00:18:28;;;;;;;4.53;3.23;;;;;;;19.99;100.00;96812.19;4870781;28;20274;-66
2023/06/21 00:20:59;;;;;;;8.27;3.77;;;;;;;20.01;100.00;96800.09;4905046;29;20572;-66
2023/06/21 00:23:27;;;;;;;5.47;3.70;;;;;;;20.06;100.00;96807.41;4918367;28;20222;-65
2023/06/21 00:25:55;;;;;;;5.03;4.07;;;;;;;20.10;100.00;96801.28;4910482;28;20452;-66
2023/06/21 00:28:23;;;;;;;5.37;3.93;;;;;;;20.06;100.00;96808.22;4928011;29;20489;-66
2023/06/21 00:30:50;;;;;;;4.27;3.87;;;;;;;20.02;100.00;96820.53;4922033;29;20298;-65
2023/06/21 00:33:18;;;;;;;8.60;3.90;;;;;;;19.99;100.00;96825.63;4875092;28;20618;-66
2023/06/21 00:35:45;;;;;;;4.37;3.87;;;;;;;19.93;100.00;96844.41;4908923;29;20415;-66
2023/06/21 00:38:14;;;;;;;3.27;2.97;;;;;;;19.92;100.00;96853.53;4923386;29;20226;-65
2023/06/21 00:40:42;;;;;;;4.90;3.63;;;;;;;20.00;100.00;96875.66;4908823;28;20623;-65
2023/06/21 00:43:09;;;;;;;5.47;4.20;;;;;;;19.98;100.00;96878.59;4926647;29;20295;-66
2023/06/21 00:45:40;;;;;;;8.60;4.27;;;;;;;19.91;100.00;96881.50;4924678;29;20218;-64
2023/06/21 00:48:07;;;;;;;7.73;4.03;;;;;;;20.04;100.00;96891.00;4871124;28;20888;-66
2023/06/21 00:50:38;;;;;;;6.40;3.73;;;;;;;19.99;100.00;96864.06;4897992;28;20215;-66
2023/06/21 00:53:06;;;;;;;7.37;4.20;;;;;;;20.21;100.00;96865.91;4924105;29;20269;-66
2023/06/21 00:55:35;;;;;;;15.23;6.77;;;;;;;20.08;100.00;96867.97;4916060;28;20294;-64
2023/06/21 00:58:03;;;;;;;7.33;4.77;;;;;;;19.92;100.00;96869.66;4924960;28;20266;-66
2023/06/21 01:00:31;;;;;;;9.00;5.03;;;;;;;19.86;100.00;96853.69;4922658;29;20203;-65
2023/06/21 01:02:59;;;;;;;7.50;5.07;;;;;;;19.78;100.00;96836.97;4925639;29;20306;-65
2023/06/21 01:05:29;;;;;;;6.93;4.90;;;;;;;19.65;100.00;96832.78;4872526;29;20385;-65
2023/06/21 01:08:03;;;;;;;6.03;4.60;;;;;;;19.58;100.00;96818.72;4910483;28;20322;-66
2023/06/21 01:10:45;;;;;;;6.40;4.63;;;;;;;19.48;100.00;96811.34;4925471;29;20245;-65
2023/06/21 01:13:24;;;;;;;6.77;4.83;;;;;;;19.36;100.00;96822.22;4909122;28;20306;-65
2023/06/21 01:15:58;;;;;;;7.50;4.93;;;;;;;19.24;100.00;96795.47;4921245;29;20249;-66
2023/06/21 01:18:26;;;;;;;9.77;4.70;;;;;;;19.19;100.00;96813.41;4919675;29;20255;-65
2023/06/21 01:20:57;;;;;;;9.50;5.10;;;;;;;19.11;100.00;96821.88;4890212;28;20479;-65
2023/06/21 01:23:42;;;;;;;6.37;4.47;;;;;;;19.04;100.00;96830.13;4902135;28;20735;-67
2023/06/21 01:26:16;;;;;;;8.97;5.50;;;;;;;19.01;100.00;96844.03;4925032;29;20281;-66
2023/06/21 01:29:00;;;;;;;12.57;5.47;;;;;;;18.99;100.00;96840.78;4908132;28;20282;-65
2023/06/21 01:31:28;;;;;;;7.67;4.90;;;;;;;18.94;100.00;96836.13;4917620;28;20457;-65
2023/06/21 01:33:57;;;;;;;7.37;4.83;;;;;;;18.88;100.00;96834.44;4928080;29;20254;-65
2023/06/21 01:36:24;;;;;;;7.03;4.17;;;;;;;18.83;100.00;96837.03;4867471;28;20234;-66
2023/06/21 01:38:54;;;;;;;9.30;5.53;;;;;;;18.77;100.00;96846.88;4904148;29;20206;-67
2023/06/21 01:41:22;;;;;;;11.10;5.77;;;;;;;18.71;100.00;96845.97;4902280;28;20239;-66
2023/06/21 01:43:50;;;;;;;7.00;4.63;;;;;;;18.58;100.00;96854.34;4909400;28;20306;-66
2023/06/21 01:46:22;;;;;;;6.83;4.83;;;;;;;18.59;100.00;96853.31;4922023;29;20326;-62
2023/06/21 01:48:50;;;;;;;7.77;5.20;;;;;;;18.45;100.00;96856.31;4921779;29;21603;-66
2023/06/21 01:51:18;;;;;;;11.60;4.97;;;;;;;18.47;100.00;96850.69;4865051;28;20211;-64
2023/06/21 01:53:46;;;;;;;7.47;4.70;;;;;;;18.44;100.00;96852.00;4907111;29;20234;-65
2023/06/21 01:56:16;;;;;;;6.80;5.00;;;;;;;18.29;100.00;96851.72;4919747;29;21103;-65
2023/06/21 01:58:45;;;;;;;6.60;5.13;;;;;;;18.38;100.00;96850.31;4907963;28;22292;-64
2023/06/21 02:01:12;;;;;;;6.97;5.20;;;;;;;18.46;100.00;96857.94;4928489;28;20235;-65
2023/06/21 02:03:44;;;;;;;6.83;4.70;;;;;;;18.45;100.00;96863.53;4924834;28;21545;-64
2023/06/21 02:06:13;;;;;;;7.33;4.73;;;;;;;18.44;100.00;96861.91;4892643;28;21054;-64
2023/06/21 02:08:41;;;;;;;8.80;4.97;;;;;;;18.34;100.00;96867.91;4895111;28;20211;-66
2023/06/21 02:11:09;;;;;;;5.73;5.13;;;;;;;18.25;100.00;96864.00;4928655;29;20638;-65
2023/06/21 02:13:37;;;;;;;7.23;5.50;;;;;;;18.26;100.00;96871.00;4905818;28;20223;-65
2023/06/21 02:16:05;;;;;;;9.80;5.37;;;;;;;18.28;100.00;96867.03;4933916;29;20234;-64
2023/06/21 02:18:32;;;;;;;8.23;4.90;;;;;;;18.20;100.00;96862.84;4931473;29;20899;-67
2023/06/21 02:21:01;;;;;;;6.57;5.10;;;;;;;18.16;100.00;96856.34;4932198;29;20211;-65
2023/06/21 02:23:29;;;;;;;8.13;5.53;;;;;;;18.21;100.00;96850.28;4860341;28;20206;-65
2023/06/21 02:25:57;;;;;;;6.50;5.90;;;;;;;18.13;100.00;96864.06;4924989;29;20449;-65
2023/06/21 02:28:24;;;;;;;8.27;6.27;;;;;;;18.14;100.00;96853.09;4909991;28;20778;-66
2023/06/21 02:30:52;;;;;;;8.97;5.53;;;;;;;18.11;100.00;96858.94;4929949;29;20226;-66
2023/06/21 02:33:20;;;;;;;10.07;6.30;;;;;;;18.02;100.00;96871.91;4901710;29;20876;-67
2023/06/21 02:35:47;;;;;;;7.13;5.57;;;;;;;17.76;100.00;96867.91;4923865;28;20214;-67
2023/06/21 02:38:16;;;;;;;6.20;5.60;;;;;;;17.80;100.00;96863.69;4892326;28;20229;-65
2023/06/21 02:40:44;;;;;;;7.00;6.30;;;;;;;17.84;100.00;96861.38;4905819;29;20509;-65
2023/06/21 02:43:11;;;;;;;6.33;5.33;;;;;;;17.73;100.00;96860.34;4932471;28;20231;-65
2023/06/21 02:45:39;;;;;;;7.47;6.43;;;;;;;17.67;100.00;96869.34;4905318;28;20746;-65
2023/06/21 02:48:07;;;;;;;9.33;7.43;;;;;;;17.61;100.00;96857.69;4925288;28;20230;-65
2023/06/21 02:50:36;;;;;;;6.47;5.80;;;;;;;17.62;100.00;96868.19;4926483;29;20216;-65
2023/06/21 02:53:03;;;;;;;6.63;5.83;;;;;;;17.67;100.00;96869.34;4875443;28;20646;-65
2023/06/21 02:55:32;;;;;;;10.90;6.00;;;;;;;17.56;100.00;96863.75;4906347;28;20211;-64
2023/06/21 02:58:00;;;;;;;6.80;5.50;;;;;;;17.52;100.00;96865.28;4931174;29;20219;-64
2023/06/21 03:00:31;;;;;;;6.23;5.63;;;;;;;17.54;100.00;96865.84;4910375;28;20745;-63
2023/06/21 03:03:00;;;;;;;7.53;6.00;;;;;;;17.52;100.00;96864.47;4927104;29;20204;-64
2023/06/21 03:05:28;;;;;;;6.80;6.10;;;;;;;17.52;100.00;96861.81;4924367;29;20231;-65
2023/06/21 03:07:56;;;;;;;6.30;5.80;;;;;;;17.42;100.00;96852.47;4872774;29;21101;-65
2023/06/21 03:10:24;;;;;;;8.27;6.43;;;;;;;17.39;100.00;96862.88;4922011;29;20212;-64
2023/06/21 03:12:53;;;;;;;6.57;5.73;;;;;;;17.44;100.00;96863.81;4913479;28;20403;-64
2023/06/21 03:15:21;;;;;;;6.57;6.07;;;;;;;17.36;100.00;96875.69;4909649;28;20330;-63
2023/06/21 03:17:48;;;;;;;8.07;6.50;;;;;;;17.42;100.00;96879.25;4920225;29;20690;-64
2023/06/21 03:20:16;;;;;;;7.47;6.13;;;;;;;17.40;100.00;96891.28;4928284;29;20222;-67
2023/06/21 03:22:45;;;;;;;6.07;5.47;;;;;;;17.34;100.00;96883.13;4917509;29;20293;-63
2023/06/21 03:25:14;;;;;;;6.37;5.77;;;;;;;17.36;100.00;96888.25;4874486;29;20216;-63
2023/06/21 03:27:42;;;;;;;8.77;5.63;;;;;;;17.44;100.00;96887.06;4902285;29;20621;-64
2023/06/21 03:30:12;;;;;;;6.67;5.83;;;;;;;17.32;100.00;96874.53;4911586;28;20306;-64
2023/06/21 03:32:40;;;;;;;13.40;7.37;;;;;;;17.27;100.00;96897.69;4918466;29;20496;-64
2023/06/21 03:35:08;;;;;;;6.37;5.77;;;;;;;17.31;100.00;96897.00;4927673;28;20217;-64
2023/06/21 03:37:36;;;;;;;10.27;6.30;;;;;;;17.28;100.00;96886.75;4917703;29;21480;-65
2023/06/21 03:40:05;;;;;;;7.10;6.00;;;;;;;17.39;100.00;96906.50;4875012;29;20223;-66
2023/06/21 03:42:33;;;;;;;7.03;6.20;;;;;;;17.40;100.00;96908.16;4927175;28;20687;-64
2023/06/21 03:45:00;;;;;;;7.23;6.53;;;;;;;17.41;100.00;96911.66;4920962;29;20212;-67
2023/06/21 03:47:29;;;;;;;7.10;6.30;;;;;;;17.38;100.00;96917.47;4912656;28;20330;-66
2023/06/21 03:49:57;;;;;;;6.83;6.17;;;;;;;17.41;100.00;96925.03;4932306;29;20306;-67
2023/06/21 03:52:25;;;;;;;9.43;6.37;;;;;;;17.39;100.00;96927.94;4923561;29;20212;-68
2023/06/21 03:54:53;;;;;;;6.93;6.00;;;;;;;17.41;100.00;96925.03;4899885;28;20343;-66
2023/06/21 03:57:21;;;;;;;7.50;6.00;;;;;;;17.42;100.00;96921.31;4871062;29;20235;-67
2023/06/21 03:59:48;;;;;;;9.13;6.93;;;;;;;17.45;100.00;96927.03;4927595;28;20214;-67
2023/06/21 04:02:16;;;;;;;7.57;6.57;;;;;;;17.47;100.00;96927.59;4885900;28;20219;-68
2023/06/21 04:04:45;;;;;;;7.20;6.27;;;;;;;17.50;100.00;96929.81;4920213;29;20198;-66
2023/06/21 04:07:13;;;;;;;8.60;6.90;;;;;;;17.53;100.00;96933.06;4917038;29;20326;-66
2023/06/21 04:09:41;;;;;;;6.60;5.90;;;;;;;17.58;100.00;96931.28;4918137;29;20226;-66
2023/06/21 04:12:09;;;;;;;8.83;6.27;;;;;;;17.56;100.00;96933.41;4892684;29;20902;-66
2023/06/21 04:14:37;;;;;;;9.17;7.60;;;;;;;17.59;100.00;96932.91;4919927;29;20785;-68
2023/06/21 04:17:05;;;;;;;8.17;7.40;;;;;;;17.67;100.00;96934.44;4908473;29;20734;-67
2023/06/21 04:19:33;;;;;;;8.17;7.23;;;;;;;17.73;100.00;96944.19;4907735;28;20294;-67
2023/06/21 04:22:02;;;;;;;7.03;6.37;;;;;;;17.74;100.00;96947.72;4925852;29;20262;-67
2023/06/21 04:24:29;;;;;;;7.07;6.40;;;;;;;17.81;100.00;96947.59;4917726;29;20287;-67
2023/06/21 04:26:58;;;;;;;10.13;6.90;;;;;;;17.83;100.00;96948.16;4886267;28;20822;-67
2023/06/21 04:29:26;;;;;;;9.30;7.63;;;;;;;17.91;100.00;96951.28;4926104;29;20226;-68
2023/06/21 04:31:55;;;;;;;7.83;6.60;;;;;;;18.01;100.00;96952.59;4922410;29;20686;-66
2023/06/21 04:34:26;;;;;;;8.90;8.07;;;;;;;18.06;100.00;96948.13;4881824;28;20215;-69
2023/06/21 04:36:54;;;;;;;8.13;7.33;;;;;;;18.21;100.00;96947.59;4900226;29;20234;-67
2023/06/21 04:39:23;;;;;;;8.30;7.60;;;;;;;18.37;100.00;96934.47;4918801;28;20214;-68
2023/06/21 04:41:53;;;;;;;10.70;7.97;;;;;;;18.57;100.00;96931.38;4889114;29;20242;-68
2023/06/21 04:44:20;;;;;;;8.80;7.97;;;;;;;18.63;100.00;96924.19;4925690;29;20293;-69
2023/06/21 04:46:48;;;;;;;14.10;7.37;;;;;;;18.77;100.00;96928.22;4915263;29;20307;-67
2023/06/21 04:49:17;;;;;;;11.00;7.97;;;;;;;18.92;100.00;96918.78;4883962;28;20696;-68
2023/06/21 04:51:45;;;;;;;11.00;7.37;;;;;;;19.18;100.00;96928.06;4924708;29;20203;-69
2023/06/21 04:54:13;;;;;;;8.60;7.90;;;;;;;19.33;100.00;96929.34;4923799;29;20294;-68
2023/06/21 04:56:42;;;;;;;8.63;7.77;;;;;;;19.46;100.00;96928.16;4903511;29;20317;-66
2023/06/21 04:59:10;;;;;;;10.80;7.57;;;;;;;19.56;100.00;96928.31;4925311;28;20210;-69
2023/06/21 05:01:38;;;;;;;10.33;7.33;;;;;;;19.74;100.00;96931.78;4922512;29;20211;-67
2023/06/21 05:04:05;;;;;;;9.70;7.90;;;;;;;19.86;100.00;96940.50;4903427;28;20345;-68
2023/06/21 05:06:33;;;;;;;9.13;8.23;;;;;;;19.97;100.00;96943.38;4928728;29;20741;-67
2023/06/21 05:09:00;;;;;;;7.73;6.67;;;;;;;19.83;100.00;96945.59;4917566;29;20314;-68
2023/06/21 05:11:28;;;;;;;10.33;6.77;;;;;;;20.18;100.00;96949.81;4926563;29;20567;-67
2023/06/21 05:13:58;;;;;;;8.70;7.57;;;;;;;20.40;100.00;96952.47;4885070;29;20297;-66
2023/06/21 05:16:25;;;;;;;11.17;7.60;;;;;;;20.32;100.00;96953.72;4929624;29;20282;-67
2023/06/21 05:18:53;;;;;;;9.10;5.63;;;;;;;20.24;100.00;96954.19;4923397;29;20281;-66
2023/06/21 05:21:20;;;;;;;7.90;6.20;;;;;;;20.39;100.00;96959.72;4906254;28;20309;-66
2023/06/21 05:23:48;;;;;;;8.53;6.60;;;;;;;20.41;100.00;96962.16;4922114;29;20234;-66
2023/06/21 05:26:15;;;;;;;7.20;6.47;;;;;;;20.58;100.00;96969.31;4924544;29;20230;-66
2023/06/21 05:28:44;;;;;;;7.60;6.83;;;;;;;20.78;100.00;96974.91;4898933;29;20905;-66
2023/06/21 05:31:13;;;;;;;7.30;6.30;;;;;;;20.81;100.00;96977.13;4926179;28;20215;-66
2023/06/21 05:33:41;;;;;;;7.87;6.27;;;;;;;20.77;100.00;96980.53;4916267;29;20202;-66
2023/06/21 05:36:09;;;;;;;11.97;7.10;;;;;;;21.11;100.00;96972.25;4902934;28;20340;-66
2023/06/21 05:38:36;;;;;;;7.20;6.50;;;;;;;21.39;100.00;96981.88;4927054;29;20203;-66
2023/06/21 05:41:04;;;;;;;7.23;6.53;;;;;;;21.55;100.00;96988.19;4929167;29;20951;-66
2023/06/21 05:43:32;;;;;;;8.27;6.60;;;;;;;21.68;100.00;96978.84;4919846;29;20230;-65
2023/06/21 05:46:00;;;;;;;8.63;6.90;;;;;;;22.01;100.00;97005.75;4908501;29;21830;-66
2023/06/21 05:48:29;;;;;;;9.33;6.03;;;;;;;22.20;100.00;96995.28;4926925;29;20609;-67
2023/06/21 05:50:57;;;;;;;6.13;5.63;;;;;;;22.43;100.00;96998.59;4922873;29;20227;-66
2023/06/21 05:53:24;;;;;;;8.40;6.07;;;;;;;22.60;100.00;96997.59;4908982;29;20261;-67
2023/06/21 05:55:54;;;;;;;6.17;5.63;;;;;;;22.76;100.00;96993.84;4928062;29;20362;-67
2023/06/21 05:58:21;;;;;;;7.87;6.43;;;;;;;22.90;100.00;96994.13;4937783;29;20199;-65
2023/06/21 06:00:49;;;;;;;9.53;5.77;;;;;;;22.79;100.00;97001.41;4888826;29;20225;-67
2023/06/21 06:03:17;;;;;;;6.40;5.90;;;;;;;23.15;100.00;97014.16;4929407;29;20619;-66
2023/06/21 06:05:47;;;;;;;9.20;5.37;;;;;;;23.47;100.00;97017.69;4923463;29;20222;-66
2023/06/21 06:08:14;;;;;;;7.00;5.60;;;;;;;23.69;100.00;96999.28;4910210;29;20298;-67
2023/06/21 06:10:42;;;;;;;8.30;6.80;;;;;;;23.39;100.00;97011.75;4925375;28;20222;-67
2023/06/21 06:13:10;;;;;;;9.43;6.27;;;;;;;23.60;100.00;97016.31;4932244;28;20255;-66
2023/06/21 06:15:37;;;;;;;6.23;5.63;;;;;;;23.11;100.00;97016.56;4890982;28;20345;-66
2023/06/21 06:18:05;;;;;;;8.63;5.87;;;;;;;23.37;100.00;97018.50;4930887;29;20308;-67
2023/06/21 06:20:33;;;;;;;6.63;5.93;;;;;;;23.57;100.00;97028.47;4932015;28;20321;-66
2023/06/21 06:23:02;;;;;;;6.87;6.20;;;;;;;23.46;100.00;97040.38;4899652;28;20419;-66
2023/06/21 06:25:30;;;;;;;7.80;6.10;;;;;;;23.68;100.00;97037.41;4931053;29;20246;-67
2023/06/21 06:27:57;;;;;;;8.23;5.93;;;;;;;23.94;100.00;97045.47;4924950;29;20368;-66
2023/06/21 06:30:25;;;;;;;7.30;6.53;;;;;;;23.64;100.00;97057.94;4934250;29;20308;-66
2023/06/21 06:32:53;;;;;;;8.50;6.60;;;;;;;23.59;100.00;97064.16;4894954;28;20231;-67
2023/06/21 06:35:20;;;;;;;8.73;6.80;;;;;;;23.36;100.00;97058.25;4923290;29;20215;-67
2023/06/21 06:37:48;;;;;;;7.50;5.97;;;;;;;23.57;100.00;97063.63;4923342;29;20246;-68
2023/06/21 06:40:17;;;;;;;9.23;6.07;;;;;;;24.08;100.00;97065.47;4904767;29;20208;-66
2023/06/21 06:42:45;;;;;;;9.53;6.30;;;;;;;24.69;100.00;97057.38;4930589;29;20231;-65
2023/06/21 06:45:12;;;;;;;8.60;5.93;;;;;;;25.11;100.00;97050.66;4930506;29;20914;-67
2023/06/21 06:47:40;;;;;;;5.97;5.40;;;;;;;25.25;100.00;97053.53;4892118;28;20326;-65
2023/06/21 06:50:08;;;;;;;7.13;5.60;;;;;;;25.48;100.00;97063.97;4925754;28;20227;-67
2023/06/21 06:52:36;;;;;;;7.10;5.47;;;;;;;25.53;100.00;97067.44;4924270;28;20757;-67
2023/06/21 06:55:04;;;;;;;6.57;5.70;;;;;;;25.19;100.00;97051.13;4904753;29;20238;-67
2023/06/21 06:57:33;;;;;;;6.00;5.43;;;;;;;24.93;100.00;97044.00;4933081;28;20279;-66
2023/06/21 07:00:08;;;;;;;5.70;5.20;;;;;;;24.56;100.00;97078.56;4928230;29;20894;-66
2023/06/21 07:02:36;;;;;;;25.53;6.40;;;;;;;24.30;100.00;97094.13;4911803;29;20237;-65
2023/06/21 07:05:05;;;;;;;5.93;5.43;;;;;;;23.96;100.00;97098.19;4913131;28;20217;-68
2023/06/21 07:07:33;;;;;;;6.40;5.70;;;;;;;23.64;100.00;97106.63;4927887;29;20326;-67
2023/06/21 07:10:00;;;;;;;6.80;6.20;;;;;;;23.49;100.00;97104.72;4923834;29;20314;-67
2023/06/21 07:12:28;;;;;;;6.77;6.30;;;;;;;23.42;100.00;97099.59;4912194;29;20215;-66
2023/06/21 07:14:57;;;;;;;6.57;5.97;;;;;;;23.55;100.00;97093.66;4929991;29;20207;-66
2023/06/21 07:17:25;;;;;;;6.93;6.40;;;;;;;23.69;100.00;97079.56;4923398;29;20562;-66
2023/06/21 07:19:53;;;;;;;6.03;5.53;;;;;;;23.92;100.00;97069.28;4891933;28;20996;-66
2023/06/21 07:22:21;;;;;;;6.67;5.90;;;;;;;24.12;100.00;97069.25;4928991;28;20302;-65
2023/06/21 07:24:48;;;;;;;7.73;7.13;;;;;;;23.96;100.00;97065.75;4903821;29;20251;-64
2023/06/21 07:27:16;;;;;;;8.00;6.37;;;;;;;24.21;100.00;97072.22;4909734;29;20421;-66
2023/06/21 07:29:44;;;;;;;6.60;6.10;;;;;;;24.39;100.00;97065.38;4929516;29;20581;-65
2023/06/21 07:32:13;;;;;;;6.67;6.10;;;;;;;24.66;100.00;97080.44;4926871;29;20306;-66
2023/06/21 07:34:41;;;;;;;7.70;6.30;;;;;;;24.67;100.00;97086.66;4898491;29;20286;-66
2023/06/21 07:37:09;;;;;;;7.10;6.47;;;;;;;24.34;100.00;97081.66;4916563;29;20967;-66
2023/06/21 07:39:36;;;;;;;9.10;6.40;;;;;;;24.55;100.00;97086.97;4923422;28;20211;-66
2023/06/21 07:42:21;;;;;;;7.37;6.63;;;;;;;24.71;100.00;97091.25;4900339;29;20210;-67
2023/06/21 07:44:50;;;;;;;6.47;5.87;;;;;;;25.19;100.00;97084.50;4925556;29;20871;-66
2023/06/21 07:47:19;;;;;;;7.80;6.43;;;;;;;25.43;100.00;97071.03;4927183;29;20238;-66
2023/06/21 07:49:47;;;;;;;6.17;5.57;;;;;;;25.77;100.00;97076.75;4894799;29;20219;-66
2023/06/21 07:52:15;;;;;;;5.80;5.30;;;;;;;26.01;100.00;97077.59;4891801;29;20224;-66
2023/06/21 07:54:42;;;;;;;7.87;5.33;;;;;;;25.53;100.00;97072.06;4923828;29;20708;-68
2023/06/21 07:57:10;;;;;;;6.03;5.43;;;;;;;25.83;100.00;97076.41;4908296;28;20338;-67
2023/06/21 07:59:38;;;;;;;5.43;4.97;;;;;;;25.90;100.00;97088.84;4906600;28;20207;-66
2023/06/21 08:02:06;;;;;;;4.83;4.47;;;;;;;26.02;100.00;97081.09;4923417;29;20638;-65
2023/06/21 08:04:35;;;;;;;5.17;4.70;;;;;;;26.11;98.40;97067.72;4928618;28;20304;-65
2023/06/21 08:07:04;;;;;;;5.00;4.60;;;;;;;26.33;97.86;97060.97;4889504;29;20239;-66
2023/06/21 08:09:32;;;;;;;5.53;4.77;;;;;;;26.58;92.40;97068.03;4923736;29;20322;-66
2023/06/21 08:12:00;;;;;;;4.77;4.47;;;;;;;26.78;94.67;97061.50;4906285;29;21157;-67
2023/06/21 08:14:28;;;;;;;5.17;4.63;;;;;;;26.83;89.84;97045.13;4906589;29;20215;-67
2023/06/21 08:16:56;;;;;;;5.67;4.83;;;;;;;27.13;87.03;97047.72;4928348;29;20298;-67
2023/06/21 08:19:24;;;;;;;7.60;4.83;;;;;;;27.09;88.59;97044.78;4921668;29;20291;-66
2023/06/21 08:21:53;;;;;;;5.23;4.67;;;;;;;27.17;89.30;97046.00;4883606;29;26366;-66
2023/06/21 08:24:20;;;;;;;5.20;4.80;;;;;;;26.94;92.96;97045.00;4923056;29;20719;-67
2023/06/21 08:26:48;;;;;;;5.10;4.60;;;;;;;26.58;86.40;97046.28;4907263;29;21037;-67
2023/06/21 08:29:16;;;;;;;4.73;4.30;;;;;;;26.50;86.16;97045.03;4905662;29;20314;-67
2023/06/21 08:31:43;;;;;;;4.83;4.43;;;;;;;26.79;84.61;97032.41;4922124;29;20283;-66
2023/06/21 08:34:11;;;;;;;6.33;4.40;;;;;;;27.07;82.33;97038.81;4927062;29;20214;-66
2023/06/21 08:36:39;;;;;;;8.53;4.80;;;;;;;27.00;81.76;97035.66;4892090;29;20317;-66
2023/06/21 08:39:09;;;;;;;6.60;4.83;;;;;;;27.06;83.03;97039.13;4918004;28;20203;-66
2023/06/21 08:41:37;;;;;;;5.23;4.73;;;;;;;26.99;82.71;97032.16;4913701;29;20251;-65
2023/06/21 08:44:04;;;;;;;5.30;4.80;;;;;;;27.04;85.01;97036.69;4926402;28;20262;-68
2023/06/21 08:46:34;;;;;;;4.57;4.17;;;;;;;27.18;83.31;97027.81;4897910;29;20242;-67
2023/06/21 08:49:04;;;;;;;4.63;4.33;;;;;;;27.22;80.79;97020.66;4924833;29;20203;-67
2023/06/21 08:51:34;;;;;;;5.20;4.50;;;;;;;27.36;81.63;97018.78;4924749;29;20219;-67
2023/06/21 08:54:07;;;;;;;4.93;4.53;;;;;;;27.53;83.82;97026.41;4881770;28;20225;-66
2023/06/21 08:56:42;;;;;;;5.07;4.63;;;;;;;27.33;81.89;97032.97;4927382;28;20225;-66
2023/06/21 08:59:15;;;;;;;5.63;5.13;;;;;;;26.63;81.13;97019.03;4907958;29;20210;-67
2023/06/21 09:01:48;;;;;;;4.37;3.93;;;;;;;27.15;83.37;97024.56;4902429;29;20206;-66
2023/06/21 09:04:17;;;;;;;6.17;4.90;;;;;;;27.50;76.28;97023.47;4923098;29;20263;-67
2023/06/21 09:06:45;;;;;;;5.20;4.80;;;;;;;27.51;75.18;97028.63;4923756;29;20235;-66
2023/06/21 09:09:14;;;;;;;6.97;4.43;;;;;;;27.30;73.74;97025.41;4884939;28;20283;-67
2023/06/21 09:11:43;;;;;;;5.80;4.80;;;;;;;27.21;73.76;97022.56;4926203;29;20255;-67
2023/06/21 09:14:11;;;;;;;4.90;4.43;;;;;;;26.86;73.77;97011.13;4906551;29;20293;-66
2023/06/21 09:16:39;;;;;;;5.30;4.47;;;;;;;26.89;78.49;97026.84;4904627;29;20701;-67
2023/06/21 09:19:08;;;;;;;5.40;4.90;;;;;;;27.20;76.35;97033.75;4917858;29;20254;-66
2023/06/21 09:21:36;;;;;;;5.30;4.60;;;;;;;27.59;72.04;97029.88;4924549;28;20570;-68
2023/06/21 09:24:04;;;;;;;5.53;5.03;;;;;;;28.15;71.04;97041.66;4893121;29;21293;-68
2023/06/21 09:26:31;;;;;;;5.60;4.70;;;;;;;28.02;74.05;97037.78;4926807;29;20302;-69
2023/06/21 09:29:00;;;;;;;4.23;3.83;;;;;;;28.17;72.13;97042.16;4903840;29;20594;-67
2023/06/21 09:31:28;;;;;;;4.93;4.53;;;;;;;28.47;70.93;97044.56;4916848;29;20255;-66
2023/06/21 09:33:57;;;;;;;4.70;4.30;;;;;;;28.17;63.42;97049.50;4907493;29;20216;-67
2023/06/21 09:36:25;;;;;;;6.23;4.70;;;;;;;28.11;64.47;97048.78;4921029;29;21530;-67
2023/06/21 09:38:53;;;;;;;5.07;4.57;;;;;;;28.22;67.44;97043.16;4882427;28;21133;-66
2023/06/21 09:41:20;;;;;;;5.07;4.60;;;;;;;28.39;62.45;97048.00;4927330;29;20255;-66
2023/06/21 09:43:49;;;;;;;4.90;4.60;;;;;;;28.14;63.16;97056.38;4922989;29;20202;-67
2023/06/21 09:46:18;;;;;;;5.13;4.67;;;;;;;27.76;65.19;97058.41;4905640;29;20637;-67
2023/06/21 09:48:45;;;;;;;4.97;4.57;;;;;;;27.74;64.84;97067.69;4901891;29;20226;-68
2023/06/21 09:51:18;;;;;;;5.23;4.77;;;;;;;27.87;64.92;97070.75;4919888;29;20225;-67
2023/06/21 09:53:47;;;;;;;6.13;4.70;;;;;;;28.08;64.42;97064.91;4921000;29;21809;-66
2023/06/21 09:56:17;;;;;;;5.20;4.70;;;;;;;28.25;66.71;97067.88;4887156;29;20263;-66
2023/06/21 09:58:47;;;;;;;5.10;4.60;;;;;;;28.05;66.39;97055.44;4924920;29;20267;-67
2023/06/21 10:01:15;;;;;;;5.03;4.53;;;;;;;27.91;65.58;97051.88;4904230;28;20219;-67
2023/06/21 10:03:45;;;;;;;5.00;4.50;;;;;;;27.66;66.37;97048.53;4900258;28;20231;-67
2023/06/21 10:06:16;;;;;;;5.13;4.77;;;;;;;28.19;64.70;97050.00;4921783;28;20314;-66
2023/06/21 10:08:45;;;;;;;4.67;4.37;;;;;;;28.11;63.27;97048.78;4921763;29;20235;-67
2023/06/21 10:11:16;;;;;;;5.30;4.70;;;;;;;27.66;63.84;97041.16;4892123;28;20239;-67
2023/06/21 10:13:44;;;;;;;5.27;4.87;;;;;;;27.77;66.38;97036.34;4928768;28;20205;-68
2023/06/21 10:16:11;;;;;;;4.97;4.57;;;;;;;28.12;73.26;97042.22;4903314;29;20240;-68
2023/06/21 10:18:39;;;;;;;5.10;4.37;;;;;;;28.27;63.61;97045.78;4901630;29;20305;-67
2023/06/21 10:21:08;;;;;;;4.27;3.87;;;;;;;28.34;59.13;97040.72;4925051;28;20311;-67
2023/06/21 10:23:39;;;;;;;4.77;4.07;;;;;;;28.31;60.32;97028.53;4927566;28;20289;-68
2023/06/21 10:26:08;;;;;;;4.97;4.27;;;;;;;28.27;59.57;97034.88;4895712;29;20819;-67
2023/06/21 10:28:37;;;;;;;4.83;4.43;;;;;;;28.68;57.76;97038.69;4930071;28;20287;-67
2023/06/21 10:31:05;;;;;;;3.50;3.30;;;;;;;28.86;58.23;97042.41;4931023;29;20884;-68
2023/06/21 10:33:33;;;;;;;4.70;4.40;;;;;;;28.94;55.17;97049.03;4922277;29;20299;-69
2023/06/21 10:36:01;;;;;;;4.13;3.93;;;;;;;28.85;58.38;97044.31;4904527;28;20214;-66
2023/06/21 10:38:36;;;;;;;4.97;4.60;;;;;;;28.66;57.19;97041.69;4924411;29;20203;-67
2023/06/21 10:41:04;;;;;;;4.63;4.30;;;;;;;28.96;56.78;97041.34;4932512;29;20241;-67
2023/06/21 10:43:33;;;;;;;4.10;3.80;;;;;;;29.46;52.85;97044.00;4874345;29;20780;-69
2023/06/21 10:46:01;;;;;;;6.03;4.30;;;;;;;29.75;51.11;97048.19;4928622;29;20238;-67
2023/06/21 10:48:31;;;;;;;4.70;4.30;;;;;;;30.01;50.32;97050.25;4904053;29;20211;-69
2023/06/21 10:51:01;;;;;;;6.57;4.43;;;;;;;30.37;49.98;97062.13;4908176;29;20307;-66
2023/06/21 10:53:32;;;;;;;7.07;3.80;;;;;;;30.21;50.91;97063.66;4902498;29;20227;-68
2023/06/21 10:56:01;;;;;;;4.13;3.73;;;;;;;30.22;48.76;97068.84;4930770;28;20207;-67
2023/06/21 10:58:29;;;;;;;7.93;3.93;;;;;;;29.94;49.23;97074.47;4877178;29;20215;-67
2023/06/21 11:00:57;;;;;;;4.17;3.77;;;;;;;30.62;48.32;97076.19;4931490;29;20226;-68
2023/06/21 11:03:26;;;;;;;5.73;3.87;;;;;;;30.54;48.12;97077.78;4922902;28;20199;-67
2023/06/21 11:05:55;;;;;;;4.93;4.27;;;;;;;30.38;50.26;97091.06;4929637;29;20203;-67
2023/06/21 11:08:31;;;;;;;4.40;4.13;;;;;;;30.11;50.61;97105.72;4884963;28;20294;-68
2023/06/21 11:10:59;;;;;;;4.80;4.30;;;;;;;29.50;51.83;97114.34;4929210;29;20247;-66
2023/06/21 11:13:34;;;;;;;6.80;3.70;;;;;;;29.27;51.79;97122.47;4878586;29;20230;-67
2023/06/21 11:16:10;;;;;;;4.77;3.70;;;;;;;28.67;53.78;97143.38;4931870;28;20265;-71
2023/06/21 11:18:37;;;;;;;3.20;2.90;;;;;;;27.87;57.62;97168.75;4923394;29;20304;-66
2023/06/21 11:21:06;;;;;;;10.03;4.33;;;;;;;27.38;62.91;97242.34;4927132;28;20228;-66
2023/06/21 11:23:48;;;;;;;33.63;7.67;;;;;;;22.80;100.00;97324.41;4885640;29;20330;-71
2023/06/21 11:26:17;;;;;;;11.70;5.23;;;;;;;19.98;100.00;97351.03;4894461;29;20984;-77
2023/06/21 11:28:47;;;;;;;12.57;5.23;;;;;;;18.75;100.00;97332.88;4893875;29;20266;-74
2023/06/21 11:31:17;;;;;;;5.00;3.23;;;;;;;18.56;100.00;97350.13;4930593;29;21182;-75
2023/06/21 11:33:48;;;;;;;6.10;4.17;;;;;;;18.30;100.00;97353.00;4930254;29;20253;-72